Zetten, Netherlands
Current Conditions -  °F | °C
As of 1:55 AM on Thursday 23 Oct 2014 (Local Time) from EHDL Reporting Station
Overcast Overcast  
Wind Chill: 44°   Ceiling: 2300
Heat Index: 46°   Visibility: 6mi
Dew Point: 45°   Wind: 5mph
Humidity: 93%   Direction: 250°WSW
Pressure: 30.18"   Gusts: NA
Location:  51.93°N, 5.71°E
Report Text: EHDL 222355Z AUTO 25004KT 9999 BKN023 OVC026 08/07 Q1022 WHT
Loading
Personal Weather Stations






























Interactive Weather Map
Tropical Storm Tracking
New forecast layout! Learn more

10-Day Weather Forecast

Advertisements
Track Severe Weather on mobile